Adams, Illinois
Current Conditions -  °F | °C
As of 4:54 PM on Friday 19 Dec 2014 (Local Time) from KUIN Reporting Station
Overcast Overcast  
Wind Chill: 33°   Ceiling: 5000
Heat Index: 33°   Visibility: 8mi
Dew Point: 27°   Wind: 3mph
Humidity: 78%   Direction: 90°E
Pressure: 30.26"   Gusts: NA
Location:  39.8875°N, 91.0352°W
Report Text: KUIN 192254Z AUTO 09003KT 8SM OVC050 01/M03 A3026 RMK AO2 SLP253 T00061028
Loading
Personal Weather Stations






























Interactive Weather Map New forecast layout! Learn more

10-Day Weather Forecast

Advertisements
Track Severe Weather on mobile